Time;durP1;ratioP1;P1;durP2;ratioP2;P2;SDS_P1;SDS_P2;PMS_P1;PMS_P2;Temp;Humidity;BMP_temperature;BMP_pressure;BME280_temperature;BME280_humidity;BME280_pressure;Samples;Min_cycle;Max_cycle;Signal;HPM_P1;HPM_P2
2021/05/01 00:02:07;;;;;;;20.38;17.17;;;;;;;5.59;77.42;101046.50;4997515;28;20133;-79
2021/05/01 00:04:32;;;;;;;19.58;17.55;;;;;;;5.52;77.93;101040.69;5014988;28;20038;-79
2021/05/01 00:06:58;;;;;;;19.88;17.25;;;;;;;5.48;78.29;101051.66;5013191;28;20033;-79
2021/05/01 00:09:23;;;;;;;20.27;18.17;;;;;;;5.46;78.27;101046.41;4996244;28;20084;-79
2021/05/01 00:11:48;;;;;;;24.25;18.50;;;;;;;5.44;78.54;101039.44;5013455;28;20478;-79
2021/05/01 00:14:14;;;;;;;21.70;17.45;;;;;;;5.47;78.62;101040.13;4994701;28;20041;-79
2021/05/01 00:16:39;;;;;;;21.23;17.90;;;;;;;5.48;78.28;101041.84;5013113;28;20030;-78
2021/05/01 00:19:06;;;;;;;25.85;18.63;;;;;;;5.45;78.28;101042.03;5014932;28;20030;-79
2021/05/01 00:21:32;;;;;;;20.80;18.17;;;;;;;5.42;78.54;101038.72;5016951;28;20095;-79
2021/05/01 00:23:57;;;;;;;20.67;17.30;;;;;;;5.43;78.85;101040.41;5014743;28;20038;-78
2021/05/01 00:26:22;;;;;;;22.65;17.83;;;;;;;5.38;78.96;101039.84;5014555;28;20426;-79
2021/05/01 00:28:48;;;;;;;21.98;17.95;;;;;;;5.34;78.90;101038.31;4997197;28;20071;-79
2021/05/01 00:31:14;;;;;;;21.27;18.17;;;;;;;5.29;79.10;101039.47;5013995;28;20069;-79
2021/05/01 00:33:40;;;;;;;23.15;18.13;;;;;;;5.23;79.30;101037.19;5013594;28;20501;-78
2021/05/01 00:36:06;;;;;;;21.38;18.52;;;;;;;5.16;79.32;101043.81;5012715;28;20037;-79
2021/05/01 00:38:31;;;;;;;23.40;18.95;;;;;;;5.07;79.72;101042.56;5014978;28;20089;-79
2021/05/01 00:40:59;;;;;;;21.20;18.35;;;;;;;4.97;79.83;101041.41;5016608;28;20030;-79
2021/05/01 00:43:25;;;;;;;23.90;18.48;;;;;;;4.86;80.19;101038.53;5014459;28;20034;-79
2021/05/01 00:45:50;;;;;;;21.58;18.77;;;;;;;4.76;80.92;101037.38;5015025;28;20095;-79
2021/05/01 00:48:16;;;;;;;22.33;18.17;;;;;;;4.67;80.68;101032.59;5013798;28;20037;-78
2021/05/01 00:50:41;;;;;;;27.42;20.40;;;;;;;4.56;81.77;101033.22;5013246;28;20164;-78
2021/05/01 00:53:07;;;;;;;22.65;19.58;;;;;;;4.52;81.88;101037.00;5011734;28;20038;-79
2021/05/01 00:55:32;;;;;;;25.10;19.27;;;;;;;4.47;82.14;101036.41;5014730;28;20085;-78
2021/05/01 00:57:58;;;;;;;24.92;20.30;;;;;;;4.38;82.22;101033.34;5016021;28;20029;-79
2021/05/01 01:02:49;;;;;;;25.48;19.02;;;;;;;4.22;82.59;101029.00;5016241;28;20117;-79
2021/05/01 01:05:15;;;;;;;23.35;19.42;;;;;;;4.18;83.52;101032.78;5015504;28;20022;-78
2021/05/01 01:07:41;;;;;;;24.40;19.35;;;;;;;4.12;83.85;101026.84;5013713;28;20037;-79
2021/05/01 01:10:07;;;;;;;26.77;20.63;;;;;;;4.07;83.52;101033.38;5012773;28;20037;-79
2021/05/01 01:12:32;;;;;;;23.40;18.52;;;;;;;4.05;84.03;101028.16;5012984;28;20041;-79
2021/05/01 01:14:59;;;;;;;21.45;18.45;;;;;;;4.03;84.24;101027.38;5015747;28;20068;-79
2021/05/01 01:17:24;;;;;;;30.27;19.38;;;;;;;4.02;83.67;101031.00;5014575;28;20417;-78
2021/05/01 01:19:50;;;;;;;23.63;19.02;;;;;;;3.97;83.97;101029.53;4998613;28;20033;-79
2021/05/01 01:22:17;;;;;;;22.20;18.40;;;;;;;3.88;83.99;101031.75;5015007;28;20398;-79
2021/05/01 01:24:43;;;;;;;22.58;19.48;;;;;;;3.87;84.34;101031.84;5013764;28;20037;-79
2021/05/01 01:27:08;;;;;;;25.90;18.58;;;;;;;3.88;84.67;101028.25;4995769;28;20072;-79
2021/05/01 01:29:38;;;;;;;22.65;18.48;;;;;;;3.87;84.65;101029.19;4994682;28;20030;-79
2021/05/01 01:32:05;;;;;;;22.63;19.10;;;;;;;3.84;85.01;101029.38;5014230;28;20041;-79
2021/05/01 01:34:31;;;;;;;25.00;19.27;;;;;;;3.83;85.02;101025.00;5013947;28;20022;-79
2021/05/01 01:36:56;;;;;;;25.20;20.10;;;;;;;3.80;84.92;101019.84;5012169;28;20056;-79
2021/05/01 01:39:22;;;;;;;25.15;20.27;;;;;;;3.76;85.09;101029.78;4998979;28;20036;-80
2021/05/01 01:41:47;;;;;;;26.15;20.08;;;;;;;3.78;85.46;101021.72;4996634;28;20034;-80
2021/05/01 01:44:13;;;;;;;22.55;19.02;;;;;;;3.75;85.53;101017.44;5014505;28;20631;-79
2021/05/01 01:46:38;;;;;;;25.00;19.02;;;;;;;3.77;85.67;101014.69;4994254;28;20474;-79
2021/05/01 01:49:04;;;;;;;23.77;18.75;;;;;;;3.73;85.39;101013.13;5013794;28;20057;-79
2021/05/01 01:51:29;;;;;;;22.40;18.80;;;;;;;3.73;85.54;101007.81;5012939;28;20033;-79
2021/05/01 01:53:54;;;;;;;28.58;19.75;;;;;;;3.68;85.92;101002.75;5012122;28;20048;-79
2021/05/01 01:56:20;;;;;;;24.88;19.63;;;;;;;3.64;85.82;101009.19;5014686;28;20065;-79
2021/05/01 01:58:45;;;;;;;23.30;20.33;;;;;;;3.63;86.20;101010.13;5015226;28;20041;-79
2021/05/01 02:01:11;;;;;;;27.35;21.08;;;;;;;3.58;86.16;101010.41;5014091;28;20034;-79
2021/05/01 02:03:38;;;;;;;24.98;19.77;;;;;;;3.52;85.72;101012.50;5013739;28;20029;-79
2021/05/01 02:06:04;;;;;;;25.48;20.23;;;;;;;3.44;86.38;101005.81;5013148;28;20034;-79
2021/05/01 02:08:29;;;;;;;22.52;19.88;;;;;;;3.37;86.63;101011.56;5013448;28;20037;-78
2021/05/01 02:10:54;;;;;;;25.35;20.45;;;;;;;3.31;86.36;101011.91;5012937;28;20029;-79
2021/05/01 02:13:20;;;;;;;27.30;20.27;;;;;;;3.29;87.00;101014.63;5011974;28;20070;-78
2021/05/01 02:15:45;;;;;;;25.30;19.98;;;;;;;3.22;87.10;101007.94;4998048;28;20022;-79
2021/05/01 02:18:11;;;;;;;23.27;19.27;;;;;;;3.26;87.18;101009.47;4996122;28;20038;-79
2021/05/01 02:20:37;;;;;;;26.00;20.17;;;;;;;3.20;86.99;101010.66;4994985;28;20026;-79
2021/05/01 02:23:05;;;;;;;26.27;20.70;;;;;;;3.15;87.34;101002.09;4995635;28;20497;-79
2021/05/01 02:25:31;;;;;;;27.05;22.15;;;;;;;3.12;88.02;101001.38;5012639;28;20041;-79
2021/05/01 02:27:56;;;;;;;26.63;20.63;;;;;;;3.14;88.22;100997.69;5012036;28;20414;-79
2021/05/01 02:30:24;;;;;;;26.20;21.38;;;;;;;3.08;87.72;100995.38;5012107;28;20037;-79
2021/05/01 02:32:50;;;;;;;28.45;21.25;;;;;;;3.08;88.01;100998.03;5013060;28;20454;-80
2021/05/01 02:35:20;;;;;;;26.15;21.70;;;;;;;3.05;88.74;100992.88;5015035;28;20052;-80
2021/05/01 02:37:46;;;;;;;28.10;21.58;;;;;;;3.06;88.73;100991.06;5016769;28;20072;-79
2021/05/01 02:40:14;;;;;;;25.92;21.10;;;;;;;3.01;89.39;100982.50;4999165;28;20511;-79
2021/05/01 02:42:40;;;;;;;27.45;21.77;;;;;;;3.02;89.42;100989.53;5017078;28;20099;-79
2021/05/01 02:45:08;;;;;;;25.48;21.85;;;;;;;3.03;89.42;100977.94;4997873;28;20486;-79
2021/05/01 02:47:34;;;;;;;30.25;23.92;;;;;;;3.04;88.94;100983.19;5015177;28;20029;-79
2021/05/01 02:49:59;;;;;;;28.38;23.48;;;;;;;3.04;89.82;100988.50;5014527;28;20047;-79
2021/05/01 02:52:24;;;;;;;29.33;22.45;;;;;;;3.04;89.62;100979.69;4999870;28;20113;-79
2021/05/01 02:54:50;;;;;;;30.80;25.02;;;;;;;3.01;89.41;100980.69;5017816;28;20037;-79
2021/05/01 02:57:15;;;;;;;30.08;24.45;;;;;;;3.02;90.44;100974.44;4996375;28;20038;-79
2021/05/01 02:59:41;;;;;;;30.77;24.48;;;;;;;3.02;90.54;100978.91;4997110;28;20129;-79
2021/05/01 03:02:06;;;;;;;34.70;25.70;;;;;;;2.99;90.28;100972.78;5013249;28;20036;-79
2021/05/01 03:04:31;;;;;;;30.73;24.10;;;;;;;3.01;90.07;100978.03;5014532;28;20088;-79
2021/05/01 03:06:57;;;;;;;30.83;23.65;;;;;;;2.98;90.30;100967.59;5014200;28;20065;-79
2021/05/01 03:09:22;;;;;;;31.27;23.35;;;;;;;2.96;90.63;100972.97;5013764;28;20026;-79
2021/05/01 03:11:47;;;;;;;31.05;24.30;;;;;;;2.96;89.95;100962.34;5016157;28;20026;-79
2021/05/01 03:14:14;;;;;;;31.45;24.15;;;;;;;2.97;90.34;100965.88;5020110;28;20036;-79
2021/05/01 03:16:39;;;;;;;27.92;22.73;;;;;;;2.98;90.92;100960.47;5017457;28;20033;-79
2021/05/01 03:19:05;;;;;;;30.27;23.05;;;;;;;3.02;90.94;100963.81;5016398;28;20026;-79
2021/05/01 03:21:30;;;;;;;28.02;23.95;;;;;;;3.02;90.64;100960.31;5014001;28;20121;-79
2021/05/01 03:23:56;;;;;;;33.10;23.98;;;;;;;3.03;90.53;100960.22;5014933;28;20109;-79
2021/05/01 03:26:21;;;;;;;37.58;25.50;;;;;;;3.07;90.82;100956.47;5014196;28;20076;-79
2021/05/01 03:28:47;;;;;;;34.35;25.77;;;;;;;3.11;90.17;100954.50;5014516;28;20114;-79
2021/05/01 03:31:13;;;;;;;32.03;24.38;;;;;;;3.09;90.44;100954.59;5014669;28;20081;-79
2021/05/01 03:33:38;;;;;;;36.05;24.77;;;;;;;3.11;90.29;100957.16;4996987;28;20029;-79
2021/05/01 03:36:04;;;;;;;33.40;27.63;;;;;;;3.13;90.85;100955.28;4999385;28;20033;-79
2021/05/01 03:38:30;;;;;;;30.27;24.30;;;;;;;3.13;90.65;100945.50;5016267;28;20029;-79
2021/05/01 03:40:56;;;;;;;34.58;26.60;;;;;;;3.16;90.87;100950.66;5015862;28;20033;-78
2021/05/01 03:43:22;;;;;;;34.90;27.10;;;;;;;3.16;90.52;100948.00;5016059;28;20122;-79
2021/05/01 03:45:47;;;;;;;30.70;26.02;;;;;;;3.18;90.59;100954.09;5014848;28;20553;-79
2021/05/01 03:48:12;;;;;;;28.73;25.02;;;;;;;3.20;90.61;100949.53;5014861;28;20064;-79
2021/05/01 03:50:38;;;;;;;31.33;25.08;;;;;;;3.30;89.71;100954.34;5013530;28;20044;-78
2021/05/01 03:53:03;;;;;;;32.97;26.35;;;;;;;3.32;90.29;100949.81;5014866;28;20215;-79
2021/05/01 03:55:28;;;;;;;30.10;24.63;;;;;;;3.35;89.54;100949.66;5014933;28;20108;-79
2021/05/01 03:57:54;;;;;;;27.92;23.52;;;;;;;3.38;89.70;100947.66;5019540;28;20026;-78
2021/05/01 04:00:20;;;;;;;31.23;25.38;;;;;;;3.42;89.23;100951.00;4998970;28;20026;-80
2021/05/01 04:02:45;;;;;;;31.00;25.73;;;;;;;3.45;89.39;100956.16;4997508;28;20116;-79
2021/05/01 04:05:13;;;;;;;29.90;24.25;;;;;;;3.45;89.57;100959.66;5014421;28;20033;-79
2021/05/01 04:07:39;;;;;;;30.50;24.15;;;;;;;3.52;89.67;100962.00;4995269;28;20036;-79
2021/05/01 04:10:05;;;;;;;32.70;24.92;;;;;;;3.64;88.87;100954.22;5013465;28;20042;-79
2021/05/01 04:12:30;;;;;;;33.75;24.65;;;;;;;3.84;88.47;100961.03;5013853;28;20038;-79
2021/05/01 04:14:55;;;;;;;32.75;24.13;;;;;;;4.03;88.36;100957.31;4997083;28;20030;-79
2021/05/01 04:17:21;;;;;;;30.20;25.48;;;;;;;4.17;87.84;100957.41;4997632;28;20022;-79
2021/05/01 04:19:48;;;;;;;32.65;26.65;;;;;;;4.23;87.72;100949.06;4997449;28;20117;-79
2021/05/01 04:22:13;;;;;;;32.70;23.88;;;;;;;4.36;87.23;100962.50;5017099;28;20037;-79
2021/05/01 04:24:39;;;;;;;32.75;27.02;;;;;;;4.52;86.57;100952.63;5017174;28;20102;-79
2021/05/01 04:27:05;;;;;;;32.58;24.75;;;;;;;4.80;85.97;100959.81;5014528;28;20482;-79
2021/05/01 04:29:30;;;;;;;33.90;24.45;;;;;;;5.03;85.24;100955.75;5014838;28;20033;-79
2021/05/01 04:31:55;;;;;;;32.45;24.60;;;;;;;5.24;84.90;100958.91;5013846;28;20053;-79
2021/05/01 04:34:21;;;;;;;34.08;26.55;;;;;;;5.40;84.14;100952.59;5013085;28;20470;-79
2021/05/01 04:36:46;;;;;;;30.40;25.15;;;;;;;5.57;83.26;100954.16;5014474;28;20057;-79
2021/05/01 04:39:12;;;;;;;31.35;23.77;;;;;;;5.67;83.20;100960.66;5015546;28;20508;-79
2021/05/01 04:41:42;;;;;;;33.80;24.55;;;;;;;5.78;82.50;100962.59;4995665;28;20033;-78
2021/05/01 04:44:07;;;;;;;30.08;23.23;;;;;;;5.83;82.44;100960.50;5018264;28;20045;-80
2021/05/01 04:46:33;;;;;;;35.50;27.67;;;;;;;5.85;83.00;100953.25;4996783;28;20116;-80
2021/05/01 04:48:58;;;;;;;33.83;26.70;;;;;;;5.94;82.38;100958.88;5013999;28;20048;-80
2021/05/01 04:51:23;;;;;;;31.60;26.38;;;;;;;6.06;82.01;100959.00;5013540;28;20072;-79
2021/05/01 04:53:49;;;;;;;37.28;26.13;;;;;;;6.11;81.79;100954.22;4995589;28;20045;-79
2021/05/01 04:56:14;;;;;;;29.23;24.10;;;;;;;6.18;81.09;100960.88;4996889;28;20429;-79
2021/05/01 04:58:40;;;;;;;31.13;25.60;;;;;;;6.19;81.30;100950.09;5013257;28;20030;-79
2021/05/01 05:01:05;;;;;;;30.65;25.63;;;;;;;6.25;81.54;100956.84;4995225;28;20034;-79
2021/05/01 05:03:30;;;;;;;31.45;23.70;;;;;;;6.38;80.64;100956.88;4998440;28;20093;-79
2021/05/01 05:05:56;;;;;;;30.05;25.33;;;;;;;6.45;80.91;100948.31;5014190;28;20026;-78
2021/05/01 05:08:21;;;;;;;27.35;24.17;;;;;;;6.48;80.21;100949.94;5014024;28;20041;-79
2021/05/01 05:10:46;;;;;;;30.73;24.60;;;;;;;6.60;80.11;100954.44;5013464;28;20112;-78
2021/05/01 05:13:12;;;;;;;30.17;25.17;;;;;;;6.64;80.01;100953.28;5014349;28;20033;-79
2021/05/01 05:15:37;;;;;;;30.65;23.48;;;;;;;6.73;79.94;100961.63;5014741;28;20034;-79
2021/05/01 05:18:04;;;;;;;30.25;22.77;;;;;;;6.68;80.35;100957.47;5013410;28;20757;-79
2021/05/01 05:20:29;;;;;;;30.02;23.85;;;;;;;6.72;79.74;100957.25;5016903;28;20041;-80
2021/05/01 05:22:55;;;;;;;31.13;24.98;;;;;;;6.73;79.84;100964.28;5015453;28;20065;-80
2021/05/01 05:25:20;;;;;;;31.00;24.02;;;;;;;6.68;79.80;100961.94;4997071;28;20022;-79
2021/05/01 05:27:46;;;;;;;30.90;23.10;;;;;;;6.59;80.30;100959.91;5013034;28;20034;-79
2021/05/01 05:30:12;;;;;;;24.90;21.73;;;;;;;6.52;80.74;100963.94;4996066;28;20037;-79
2021/05/01 05:32:37;;;;;;;33.55;23.25;;;;;;;6.39;80.81;100956.75;5014253;28;20432;-79
2021/05/01 05:35:03;;;;;;;26.00;21.67;;;;;;;6.38;81.47;100956.88;5013679;28;20129;-79
2021/05/01 05:37:28;;;;;;;26.63;23.67;;;;;;;6.32;81.11;100959.97;5013067;28;20033;-79
2021/05/01 05:39:54;;;;;;;28.48;24.92;;;;;;;6.37;81.36;100955.16;5014026;28;20077;-79
2021/05/01 05:42:20;;;;;;;25.38;21.05;;;;;;;6.47;80.58;100956.25;4996529;28;20034;-79
2021/05/01 05:44:49;;;;;;;29.45;21.45;;;;;;;6.60;80.08;100953.59;5015293;28;20025;-79
2021/05/01 05:47:19;;;;;;;24.27;20.40;;;;;;;6.80;79.41;100958.44;5013901;28;20041;-79
2021/05/01 05:49:44;;;;;;;27.23;18.92;;;;;;;6.95;78.52;100966.31;4996897;28;20034;-79
2021/05/01 05:52:10;;;;;;;24.27;19.58;;;;;;;7.01;78.40;100961.44;4995897;28;20080;-78
2021/05/01 05:54:37;;;;;;;24.42;19.42;;;;;;;7.12;77.95;100969.53;4995034;28;20048;-80
2021/05/01 05:57:02;;;;;;;23.70;18.70;;;;;;;7.21;77.39;100961.84;5011351;28;20084;-79
2021/05/01 05:59:28;;;;;;;20.92;18.58;;;;;;;7.39;76.55;100965.03;4993396;28;20065;-79
2021/05/01 06:01:55;;;;;;;20.33;18.15;;;;;;;7.59;76.74;100969.78;5016447;28;20402;-80
2021/05/01 06:04:28;;;;;;;21.23;17.88;;;;;;;7.74;75.96;100966.00;5016071;28;20102;-79
2021/05/01 06:07:05;;;;;;;19.30;17.15;;;;;;;7.89;75.24;100974.72;5013384;28;20068;-79
2021/05/01 06:09:31;;;;;;;16.95;13.68;;;;;;;8.01;73.42;100965.78;5013866;28;20041;-79
2021/05/01 06:11:59;;;;;;;16.02;12.95;;;;;;;8.09;72.34;100964.38;4999298;28;20053;-79
2021/05/01 06:14:27;;;;;;;14.65;12.05;;;;;;;8.22;72.98;100963.34;5016598;28;20037;-79
2021/05/01 06:16:54;;;;;;;16.55;13.20;;;;;;;8.42;70.19;100961.88;4995189;28;20037;-79
2021/05/01 06:19:20;;;;;;;16.05;11.63;;;;;;;8.62;69.84;100963.00;4997732;28;20030;-79
2021/05/01 06:21:45;;;;;;;14.15;11.60;;;;;;;8.86;68.50;100965.63;4998103;28;20030;-80
2021/05/01 06:24:12;;;;;;;16.80;12.32;;;;;;;9.02;68.01;100967.13;4997494;28;20030;-79
2021/05/01 06:26:38;;;;;;;17.55;11.48;;;;;;;9.22;67.45;100971.78;5014896;28;20129;-79
2021/05/01 06:29:05;;;;;;;15.60;12.25;;;;;;;9.36;66.47;100963.47;5015042;28;20037;-79
2021/05/01 06:31:37;;;;;;;13.73;11.75;;;;;;;9.37;65.38;100967.03;5015549;28;20398;-80
2021/05/01 06:34:03;;;;;;;13.38;10.93;;;;;;;9.53;64.69;100970.19;5015758;28;20044;-80
2021/05/01 06:36:31;;;;;;;12.30;10.95;;;;;;;9.58;65.03;100967.13;5021979;28;20042;-79
2021/05/01 06:39:01;;;;;;;14.45;11.60;;;;;;;9.65;64.61;100973.72;5021569;28;20033;-80
2021/05/01 06:41:33;;;;;;;12.07;10.77;;;;;;;9.74;63.97;100970.28;5000302;28;20029;-80
2021/05/01 06:44:05;;;;;;;12.50;11.05;;;;;;;9.85;62.44;100972.94;5017130;28;20061;-80
2021/05/01 06:46:35;;;;;;;12.52;10.75;;;;;;;9.98;62.38;100978.19;5017064;28;20034;-80
2021/05/01 06:49:03;;;;;;;12.93;10.80;;;;;;;10.09;61.50;100983.50;5015911;28;20041;-80
2021/05/01 06:51:30;;;;;;;14.13;10.25;;;;;;;10.10;61.92;100973.59;4996140;28;20029;-80
2021/05/01 06:54:00;;;;;;;15.25;10.52;;;;;;;10.24;60.11;100972.47;4995790;28;20034;-80
2021/05/01 06:56:27;;;;;;;12.00;10.30;;;;;;;10.30;60.68;100971.97;5001930;28;20056;-80
2021/05/01 06:58:57;;;;;;;12.93;11.27;;;;;;;10.39;60.63;100973.91;5010676;28;20042;-80
2021/05/01 07:01:24;;;;;;;12.60;10.93;;;;;;;10.40;60.70;100983.66;5014845;28;20029;-80
2021/05/01 07:03:50;;;;;;;13.45;11.00;;;;;;;10.63;61.14;100976.34;5021713;28;20273;-80
2021/05/01 07:06:17;;;;;;;11.63;10.20;;;;;;;10.58;59.53;100973.19;5034365;28;20120;-80
2021/05/01 07:08:43;;;;;;;14.85;11.00;;;;;;;10.56;59.97;100975.19;5034957;28;20025;-80
2021/05/01 07:11:10;;;;;;;12.30;10.43;;;;;;;10.62;60.62;100976.47;5008705;28;20030;-80
2021/05/01 07:13:35;;;;;;;11.50;10.30;;;;;;;10.61;60.03;100977.47;5015445;28;20053;-80
2021/05/01 07:16:04;;;;;;;12.95;9.90;;;;;;;10.52;59.99;100971.03;5021558;28;20063;-80
2021/05/01 07:18:33;;;;;;;11.25;10.00;;;;;;;10.41;59.89;100985.38;5039905;28;20077;-80
2021/05/01 07:21:01;;;;;;;11.45;10.30;;;;;;;10.25;60.15;100976.84;5030345;28;20061;-80
2021/05/01 07:23:27;;;;;;;12.32;10.10;;;;;;;10.06;59.95;100970.31;5023182;28;20040;-80
2021/05/01 07:25:53;;;;;;;12.40;10.45;;;;;;;9.94;60.59;100974.00;5037325;28;20034;-80
2021/05/01 07:28:23;;;;;;;12.25;9.63;;;;;;;9.89;60.98;100974.41;5018559;28;20053;-80
2021/05/01 07:30:52;;;;;;;11.75;9.90;;;;;;;9.99;61.35;100977.19;5012361;28;20045;-80
2021/05/01 07:33:30;;;;;;;12.57;10.63;;;;;;;10.07;61.37;100988.16;5016372;28;20034;-80
2021/05/01 07:36:02;;;;;;;10.50;9.40;;;;;;;10.39;61.42;100979.28;5016096;28;20080;-80
2021/05/01 07:38:30;;;;;;;11.63;10.07;;;;;;;10.81;60.60;100979.31;5014763;28;20478;-80
2021/05/01 07:41:00;;;;;;;12.45;9.75;;;;;;;11.38;59.41;100985.13;5013885;28;20034;-79
2021/05/01 07:43:29;;;;;;;10.50;9.40;;;;;;;11.70;57.88;100991.22;5015146;28;20029;-79
2021/05/01 07:45:57;;;;;;;11.52;10.25;;;;;;;12.07;57.55;100987.09;5014540;28;20485;-80
2021/05/01 07:48:25;;;;;;;12.27;9.40;;;;;;;12.31;55.67;100989.41;5016465;28;20443;-80
2021/05/01 07:50:51;;;;;;;10.82;9.73;;;;;;;12.28;54.60;100990.53;5016640;28;20037;-80
2021/05/01 07:53:16;;;;;;;11.43;9.75;;;;;;;12.12;55.63;100991.09;5016463;28;20064;-80
2021/05/01 07:55:42;;;;;;;15.05;10.13;;;;;;;11.83;56.27;100988.28;4997824;28;20026;-80
2021/05/01 07:58:08;;;;;;;12.05;10.90;;;;;;;11.39;56.76;100987.72;4997467;28;20489;-80
2021/05/01 08:00:34;;;;;;;11.23;9.60;;;;;;;11.39;57.56;100990.41;4993988;28;20034;-73
2021/05/01 08:03:05;;;;;;;9.80;8.90;;;;;;;11.11;58.55;100981.22;5010672;28;20061;-73
2021/05/01 08:05:31;;;;;;;11.48;10.38;;;;;;;10.90;58.76;100985.75;4989452;28;20486;-72
2021/05/01 08:07:57;;;;;;;9.95;8.93;;;;;;;10.69;59.79;100991.97;5008174;28;20038;-72
2021/05/01 08:10:22;;;;;;;12.60;11.38;;;;;;;10.40;61.43;100980.13;5011014;28;20040;-73
2021/05/01 08:12:48;;;;;;;13.07;10.93;;;;;;;10.42;61.71;100984.41;5009523;28;20033;-72
2021/05/01 08:15:14;;;;;;;13.15;11.27;;;;;;;10.39;61.04;100979.28;5010799;28;20034;-73
2021/05/01 08:17:40;;;;;;;12.02;10.68;;;;;;;10.59;59.84;100985.69;5002305;28;20030;-72
2021/05/01 08:20:07;;;;;;;13.80;10.50;;;;;;;10.64;59.40;100986.13;4992864;28;20034;-73
2021/05/01 08:22:33;;;;;;;13.48;9.68;;;;;;;11.04;57.83;100983.56;5010937;28;20116;-73
2021/05/01 08:24:58;;;;;;;11.32;10.10;;;;;;;11.36;57.70;100982.59;4992576;28;20122;-72
2021/05/01 08:27:25;;;;;;;12.80;10.48;;;;;;;11.67;55.95;100982.56;5011761;28;20044;-80
2021/05/01 08:29:50;;;;;;;16.70;12.15;;;;;;;11.85;55.35;100986.34;4995317;28;20025;-81
2021/05/01 08:32:17;;;;;;;16.38;12.18;;;;;;;12.07;56.40;100979.84;5013714;28;20068;-81
2021/05/01 08:34:42;;;;;;;14.73;10.25;;;;;;;11.94;55.26;100990.06;5016169;28;20531;-80
2021/05/01 08:37:08;;;;;;;12.00;10.77;;;;;;;11.87;56.29;100984.34;4997748;28;20136;-81
2021/05/01 08:39:33;;;;;;;12.68;10.05;;;;;;;11.63;56.54;100981.13;5015519;28;20029;-81
2021/05/01 08:41:59;;;;;;;10.43;8.98;;;;;;;11.43;57.48;100978.38;4995902;28;20529;-80
2021/05/01 08:44:24;;;;;;;13.23;10.63;;;;;;;11.16;56.58;100978.09;4995266;28;20854;-80
2021/05/01 08:46:49;;;;;;;11.48;9.73;;;;;;;11.07;57.44;100976.22;5012935;28;20513;-80
2021/05/01 08:49:15;;;;;;;13.23;9.82;;;;;;;11.16;59.08;100978.09;5012114;28;20026;-80
2021/05/01 08:51:42;;;;;;;13.20;10.48;;;;;;;11.28;58.09;100987.78;5012330;28;20395;-80
2021/05/01 08:54:12;;;;;;;11.25;9.15;;;;;;;11.49;57.17;100979.66;5014743;28;20038;-80
2021/05/01 08:56:39;;;;;;;16.77;10.07;;;;;;;11.88;55.90;100982.53;5016995;28;20511;-81
2021/05/01 08:59:04;;;;;;;13.45;9.20;;;;;;;12.30;54.06;100976.88;4997929;28;20046;-81
2021/05/01 09:01:30;;;;;;;10.82;9.15;;;;;;;12.67;52.28;100987.81;4997590;28;20026;-81
2021/05/01 09:03:55;;;;;;;11.50;8.60;;;;;;;13.05;52.73;100975.25;5015842;28;20040;-81
2021/05/01 09:06:23;;;;;;;11.30;9.18;;;;;;;13.06;50.37;100974.25;5014839;28;20048;-81
2021/05/01 09:08:57;;;;;;;14.07;9.00;;;;;;;13.27;50.84;100974.09;4995229;28;20056;-81
2021/05/01 09:11:43;;;;;;;11.38;10.23;;;;;;;13.16;51.16;100964.31;4995018;28;20026;-81
2021/05/01 09:14:16;;;;;;;11.93;10.55;;;;;;;13.27;51.44;100972.22;4994244;28;20059;-80
2021/05/01 09:16:42;;;;;;;10.43;9.43;;;;;;;13.48;49.74;100971.16;5015091;28;20030;-80
2021/05/01 09:19:07;;;;;;;11.55;10.38;;;;;;;13.93;50.42;100964.97;5014509;28;20033;-81
2021/05/01 09:21:33;;;;;;;14.68;10.73;;;;;;;14.06;50.08;100964.59;5014974;28;20026;-79
2021/05/01 09:23:59;;;;;;;17.77;10.98;;;;;;;14.24;49.75;100963.59;4995312;28;20076;-81
2021/05/01 09:26:34;;;;;;;16.67;11.80;;;;;;;14.78;49.49;100962.72;4995152;28;20033;-81
2021/05/01 09:29:00;;;;;;;12.32;10.73;;;;;;;14.58;48.68;100957.50;5012415;28;20059;-81
2021/05/01 09:31:29;;;;;;;11.40;10.10;;;;;;;14.91;48.29;100965.88;4994252;28;20030;-81
2021/05/01 09:33:54;;;;;;;13.13;11.25;;;;;;;14.73;48.32;100963.22;4995324;28;20029;-81
2021/05/01 09:36:24;;;;;;;10.68;9.60;;;;;;;14.44;47.81;100969.69;4991353;28;20032;-81
2021/05/01 09:39:00;;;;;;;10.73;8.60;;;;;;;14.23;48.20;100961.03;4985136;28;20398;-81
2021/05/01 09:41:27;;;;;;;10.18;8.05;;;;;;;13.80;47.40;100962.59;5016144;28;20489;-80
2021/05/01 09:44:07;;;;;;;8.60;7.72;;;;;;;13.45;48.63;100956.09;5015989;28;20030;-81
2021/05/01 09:46:47;;;;;;;10.05;8.07;;;;;;;13.39;49.06;100958.56;5014631;28;20034;-81
2021/05/01 09:49:19;;;;;;;8.98;7.93;;;;;;;13.43;48.62;100949.13;5013519;28;20045;-81
2021/05/01 09:51:47;;;;;;;;;;;;;;;13.67;48.60;100952.16;5015082;28;20026;-81
2021/05/01 09:54:15;;;;;;;11.60;7.78;;;;;;;13.72;48.66;100949.84;5013794;28;20369;-81
2021/05/01 09:56:42;;;;;;;9.82;8.82;;;;;;;13.65;48.47;100947.88;5012577;28;20037;-81
2021/05/01 09:59:09;;;;;;;9.45;8.50;;;;;;;13.71;49.50;100950.00;5012496;28;20438;-81
2021/05/01 10:01:34;;;;;;;10.75;8.93;;;;;;;13.74;50.10;100953.25;5013850;28;20034;-81
2021/05/01 10:04:10;;;;;;;9.57;8.57;;;;;;;13.52;49.34;100943.69;5016252;28;20490;-81
2021/05/01 10:06:36;;;;;;;9.57;8.68;;;;;;;13.37;50.78;100944.34;5014905;28;20034;-81
2021/05/01 10:09:02;;;;;;;13.43;8.63;;;;;;;12.94;51.00;100940.34;5015476;28;20040;-81
2021/05/01 10:11:29;;;;;;;10.77;9.63;;;;;;;12.85;51.46;100934.81;5014787;28;20487;-81
2021/05/01 10:13:56;;;;;;;12.88;8.35;;;;;;;13.16;52.00;100940.00;5012792;28;20037;-73
2021/05/01 10:16:23;;;;;;;12.27;9.13;;;;;;;13.44;51.31;100924.69;5013949;28;20065;-81
2021/05/01 10:19:05;;;;;;;11.20;10.02;;;;;;;13.60;51.08;100937.53;5016981;28;20029;-81
2021/05/01 10:21:31;;;;;;;10.60;9.60;;;;;;;13.82;50.75;100933.56;4996826;28;20033;-81
2021/05/01 10:23:57;;;;;;;15.23;10.45;;;;;;;13.64;50.22;100921.88;4998010;28;20573;-82
2021/05/01 10:26:23;;;;;;;11.93;9.80;;;;;;;13.92;51.17;100919.97;5015216;28;20077;-81
2021/05/01 10:28:51;;;;;;;11.50;10.27;;;;;;;13.96;51.47;100926.81;5013052;28;20034;-81
2021/05/01 10:31:19;;;;;;;10.90;9.85;;;;;;;14.05;50.23;100925.00;5018151;28;20049;-81
2021/05/01 10:33:46;;;;;;;12.77;10.95;;;;;;;14.03;50.00;100928.72;5039144;28;20037;-81
2021/05/01 10:36:26;;;;;;;12.70;11.48;;;;;;;14.38;48.28;100924.31;5038658;28;20083;-81
2021/05/01 10:39:06;;;;;;;11.73;9.80;;;;;;;14.56;49.87;100916.19;5023879;28;20084;-81
2021/05/01 10:41:33;;;;;;;9.98;8.98;;;;;;;14.81;50.49;100928.03;5015340;28;20108;-81
2021/05/01 10:44:01;;;;;;;10.50;8.77;;;;;;;14.67;48.94;100915.94;4996931;28;20029;-81
2021/05/01 10:46:38;;;;;;;9.38;8.48;;;;;;;14.80;49.41;100917.38;5009333;28;20120;-81
2021/05/01 10:49:06;;;;;;;10.27;9.25;;;;;;;15.42;49.22;100919.94;5017703;28;20393;-81
2021/05/01 10:51:46;;;;;;;10.50;9.27;;;;;;;15.24;46.56;100922.72;5015850;28;20022;-81
2021/05/01 10:54:17;;;;;;;11.07;8.85;;;;;;;15.17;47.28;100915.22;4998761;28;20440;-81
2021/05/01 10:56:54;;;;;;;11.73;8.98;;;;;;;15.58;46.83;100919.97;5014287;28;20038;-81
2021/05/01 10:59:22;;;;;;;11.23;8.70;;;;;;;15.66;46.00;100921.88;5018435;28;20025;-81
2021/05/01 11:01:53;;;;;;;8.70;7.90;;;;;;;15.98;46.23;100926.59;5017344;28;20049;-81
2021/05/01 11:04:19;;;;;;;13.73;9.35;;;;;;;15.97;45.97;100920.28;5019513;28;20057;-81
2021/05/01 11:06:50;;;;;;;11.73;8.00;;;;;;;15.98;45.80;100927.44;5020635;28;20090;-81
2021/05/01 11:09:39;;;;;;;11.85;7.90;;;;;;;16.02;46.30;100923.38;5000971;28;20026;-81
2021/05/01 11:12:07;;;;;;;12.98;9.85;;;;;;;16.38;46.14;100930.38;5018294;28;20042;-81
2021/05/01 11:14:39;;;;;;;8.70;7.80;;;;;;;16.55;43.35;100938.31;5015703;28;20567;-81
2021/05/01 11:17:12;;;;;;;11.35;7.97;;;;;;;16.44;43.91;100933.25;4999419;28;20045;-81
2021/05/01 11:19:46;;;;;;;9.48;8.43;;;;;;;16.31;45.13;100935.59;5014777;28;20111;-81